Time,TemperatureF,DewpointF,PressureIn,WindDirection,WindDirectionDegrees,WindSpeedMPH,WindSpeedGustMPH,Humidity,HourlyPrecipIn,Conditions,Clouds,dailyrainin,SoftwareType,DateUTC
2013-04-02 00:00:00,27.8,22.4,29.94,WNW,290,5.0,7.0,80,0.00,RA,,0.00,WeatherDisplay:10.37,2013-04-02 04:00:00,
2013-04-02 00:05:00,27.8,21.8,29.95,NW,318,7.4,12.0,78,0.00,RA,,0.00,WeatherDisplay:10.37,2013-04-02 04:05:00,
2013-04-02 00:10:00,27.7,21.4,29.94,SW,214,4.6,12.0,77,0.00,,,0.00,WeatherDisplay:10.37,2013-04-02 04:10:00,
2013-04-02 00:15:00,27.7,21.1,29.94,WSW,242,6.0,12.0,76,0.00,,,0.00,WeatherDisplay:10.37,2013-04-02 04:15:00,
2013-04-02 00:20:00,27.8,21.2,29.95,WSW,250,2.9,12.0,76,0.00,,,0.00,WeatherDisplay:10.37,2013-04-02 04:20:00,
2013-04-02 00:25:00,27.8,20.9,29.95,WSW,242,2.4,12.0,75,0.00,,,0.00,WeatherDisplay:10.37,2013-04-02 04:25:00,
2013-04-02 00:30:00,27.8,20.6,29.95,WSW,248,4.7,13.0,74,0.00,,,0.00,WeatherDisplay:10.37,2013-04-02 04:30:00,
2013-04-02 00:35:00,27.9,20.4,29.94,WSW,250,3.4,13.0,73,0.00,,,0.00,WeatherDisplay:10.37,2013-04-02 04:35:00,
2013-04-02 00:40:00,27.9,20.0,29.94,WSW,252,0.9,14.0,72,0.00,,,0.00,WeatherDisplay:10.37,2013-04-02 04:40:00,
2013-04-02 00:45:00,27.9,19.7,29.94,WSW,257,4.1,14.0,71,0.00,,,0.00,WeatherDisplay:10.37,2013-04-02 04:45:00,
2013-04-02 00:50:00,27.8,19.6,29.94,West,264,4.8,14.0,71,0.00,,,0.00,WeatherDisplay:10.37,2013-04-02 04:50:00,
2013-04-02 00:55:00,27.9,19.4,29.95,WSW,239,6.5,14.0,70,0.00,,,0.00,WeatherDisplay:10.37,2013-04-02 04:55:00,
2013-04-02 01:00:00,28.0,19.8,29.95,West,262,4.6,14.0,71,0.00,,,0.00,WeatherDisplay:10.37,2013-04-02 05:00:00,
2013-04-02 01:05:00,28.1,19.9,29.95,WNW,295,2.7,14.0,71,0.00,,,0.00,WeatherDisplay:10.37,2013-04-02 05:05:00,
2013-04-02 01:10:00,28.0,19.8,29.95,WSW,253,7.8,14.0,71,0.00,,,0.00,WeatherDisplay:10.37,2013-04-02 05:10:00,
2013-04-02 01:15:00,27.8,19.9,29.95,West,274,5.1,14.0,72,0.00,,,0.00,WeatherDisplay:10.37,2013-04-02 05:15:00,
2013-04-02 01:20:00,27.9,20.0,29.95,WSW,239,3.3,14.0,72,0.00,,,0.00,WeatherDisplay:10.37,2013-04-02 05:20:00,
2013-04-02 01:25:00,27.9,19.4,29.95,WNW,301,5.5,14.0,70,0.00,,,0.00,WeatherDisplay:10.37,2013-04-02 05:25:00,
2013-04-02 01:30:00,28.0,19.8,29.95,WNW,293,3.5,14.0,71,0.00,,,0.00,WeatherDisplay:10.37,2013-04-02 05:30:00,
2013-04-02 01:35:00,28.0,18.8,29.95,SSE,161,4.6,14.0,68,0.00,,,0.00,WeatherDisplay:10.37,2013-04-02 05:35:00,
2013-04-02 01:40:00,28.0,18.1,29.95,WSW,239,4.6,14.0,66,0.00,,,0.00,WeatherDisplay:10.37,2013-04-02 05:40:00,
2013-04-02 01:45:00,28.1,18.5,29.96,WSW,245,5.0,14.0,67,0.00,,,0.00,WeatherDisplay:10.37,2013-04-02 05:45:00,
2013-04-02 01:50:00,27.7,19.8,29.96,WSW,257,4.0,14.0,72,0.00,,,0.00,WeatherDisplay:10.37,2013-04-02 05:50:00,
2013-04-02 01:55:00,27.0,19.8,29.95,West,274,4.8,14.0,74,0.00,,,0.00,WeatherDisplay:10.37,2013-04-02 05:55:00,
2013-04-02 02:00:00,26.8,19.6,29.95,WSW,250,3.2,14.0,74,0.00,,,0.00,WeatherDisplay:10.37,2013-04-02 06:00:00,
2013-04-02 02:05:00,26.9,19.4,29.96,West,269,4.2,14.0,73,0.00,,,0.00,WeatherDisplay:10.37,2013-04-02 06:05:00,
2013-04-02 02:10:00,26.9,18.7,29.95,West,274,4.5,14.0,71,0.00,,,0.00,WeatherDisplay:10.37,2013-04-02 06:10:00,
2013-04-02 02:15:00,27.1,18.6,29.95,WSW,239,3.3,14.0,70,0.00,,,0.00,WeatherDisplay:10.37,2013-04-02 06:15:00,
2013-04-02 02:20:00,27.0,17.8,29.95,West,260,3.0,14.0,68,0.00,,,0.00,WeatherDisplay:10.37,2013-04-02 06:20:00,
2013-04-02 02:25:00,27.0,17.8,29.95,SW,236,3.5,14.0,68,0.00,,,0.00,WeatherDisplay:10.37,2013-04-02 06:25:00,
2013-04-02 02:30:00,27.1,17.2,29.95,WNW,287,5.4,14.0,66,0.00,,,0.00,WeatherDisplay:10.37,2013-04-02 06:30:00,
2013-04-02 02:35:00,27.0,17.1,29.95,WNW,295,2.9,14.0,66,0.00,,,0.00,WeatherDisplay:10.37,2013-04-02 06:35:00,
2013-04-02 02:40:00,27.1,17.2,29.95,West,262,7.0,14.0,66,0.00,,,0.00,WeatherDisplay:10.37,2013-04-02 06:40:00,
2013-04-02 02:45:00,27.1,17.2,29.95,WSW,253,4.0,14.0,66,0.00,,,0.00,WeatherDisplay:10.37,2013-04-02 06:45:00,
2013-04-02 02:50:00,27.0,16.8,29.95,West,274,5.5,14.0,65,0.00,,,0.00,WeatherDisplay:10.37,2013-04-02 06:50:00,
2013-04-02 02:55:00,27.0,17.1,29.95,WSW,253,5.0,14.0,66,0.00,,,0.00,WeatherDisplay:10.37,2013-04-02 06:55:00,
2013-04-02 03:00:00,27.1,16.5,29.95,West,266,2.4,14.0,64,0.00,,,0.00,WeatherDisplay:10.37,2013-04-02 07:00:00,
2013-04-02 03:05:00,27.1,16.9,29.95,West,269,1.9,14.0,65,0.00,,,0.00,WeatherDisplay:10.37,2013-04-02 07:05:00,
2013-04-02 03:10:00,27.0,17.1,29.95,West,260,2.1,14.0,66,0.00,,,0.00,WeatherDisplay:10.37,2013-04-02 07:10:00,
2013-04-02 03:15:00,27.0,16.4,29.95,West,263,6.5,14.0,64,0.00,,,0.00,WeatherDisplay:10.37,2013-04-02 07:15:00,
2013-04-02 03:20:00,26.9,16.3,29.95,West,276,7.1,14.0,64,0.00,,,0.00,WeatherDisplay:10.37,2013-04-02 07:20:00,
2013-04-02 03:25:00,26.9,17.0,29.95,WNW,288,6.6,14.0,66,0.00,,,0.00,WeatherDisplay:10.37,2013-04-02 07:25:00,
2013-04-02 03:30:00,26.7,17.6,29.95,SW,219,4.5,14.0,68,0.00,,,0.00,WeatherDisplay:10.37,2013-04-02 07:30:00,
2013-04-02 03:35:00,26.4,18.6,29.95,West,260,5.0,14.0,72,0.00,,,0.00,WeatherDisplay:10.37,2013-04-02 07:35:00,
2013-04-02 03:40:00,26.1,19.3,29.95,SW,224,4.5,14.0,75,0.00,,,0.00,WeatherDisplay:10.37,2013-04-02 07:40:00,
2013-04-02 03:45:00,26.0,19.5,29.95,SSW,209,3.8,14.0,76,0.00,,,0.00,WeatherDisplay:10.37,2013-04-02 07:45:00,
2013-04-02 03:50:00,25.8,19.3,29.95,West,263,5.9,14.0,76,0.00,,,0.00,WeatherDisplay:10.37,2013-04-02 07:50:00,
2013-04-02 03:55:00,25.8,19.6,29.95,West,260,3.7,14.0,77,0.00,,,0.00,WeatherDisplay:10.37,2013-04-02 07:55:00,
2013-04-02 04:00:00,25.7,19.8,29.95,WSW,245,6.1,14.0,78,0.00,,,0.00,WeatherDisplay:10.37,2013-04-02 08:00:00,
2013-04-02 04:05:00,25.3,20.6,29.95,West,273,4.4,14.0,82,0.00,,,0.00,WeatherDisplay:10.37,2013-04-02 08:05:00,
2013-04-02 04:10:00,25.0,20.6,29.95,West,260,5.1,14.0,83,0.00,,,0.00,WeatherDisplay:10.37,2013-04-02 08:10:00,
2013-04-02 04:15:00,24.9,20.5,29.95,West,264,3.8,14.0,83,0.00,,,0.00,WeatherDisplay:10.37,2013-04-02 08:15:00,
2013-04-02 04:20:00,25.1,20.4,29.95,WSW,256,4.7,14.0,82,0.00,,,0.00,WeatherDisplay:10.37,2013-04-02 08:20:00,
2013-04-02 04:25:00,25.2,20.2,29.95,West,259,9.0,14.0,81,0.00,,,0.00,WeatherDisplay:10.37,2013-04-02 08:25:00,
2013-04-02 04:30:00,24.6,20.7,29.95,West,269,7.1,14.0,85,0.00,,,0.00,WeatherDisplay:10.37,2013-04-02 08:30:00,
2013-04-02 04:35:00,24.2,21.2,29.95,SW,229,4.1,14.0,88,0.00,,,0.00,WeatherDisplay:10.37,2013-04-02 08:35:00,
2013-04-02 04:40:00,24.0,21.0,29.95,WSW,257,2.5,14.0,88,0.00,,,0.00,WeatherDisplay:10.37,2013-04-02 08:40:00,
2013-04-02 04:45:00,24.0,20.4,29.95,West,266,2.4,14.0,86,0.00,,,0.00,WeatherDisplay:10.37,2013-04-02 08:45:00,
2013-04-02 04:50:00,24.3,19.6,29.95,SW,225,2.0,14.0,82,0.00,,,0.00,WeatherDisplay:10.37,2013-04-02 08:50:00,
2013-04-02 04:55:00,24.7,18.8,29.95,West,266,4.5,14.0,78,0.00,,,0.00,WeatherDisplay:10.37,2013-04-02 08:55:00,
2013-04-02 05:00:00,25.0,19.1,29.95,West,276,6.9,14.0,78,0.00,,,0.00,WeatherDisplay:10.37,2013-04-02 09:00:00,
2013-04-02 05:05:00,25.0,19.1,29.95,West,271,6.6,14.0,78,0.00,,,0.00,WeatherDisplay:10.37,2013-04-02 09:05:00,
2013-04-02 05:10:00,25.1,18.9,29.95,West,269,5.2,14.0,77,0.00,,,0.00,WeatherDisplay:10.37,2013-04-02 09:10:00,
2013-04-02 05:15:00,25.3,19.4,29.96,West,267,4.3,14.0,78,0.00,,,0.00,WeatherDisplay:10.37,2013-04-02 09:15:00,
2013-04-02 05:20:00,25.2,19.6,29.96,SW,227,5.6,14.0,79,0.00,,,0.00,WeatherDisplay:10.37,2013-04-02 09:20:00,
2013-04-02 05:25:00,25.1,19.5,29.96,SSW,208,4.2,14.0,79,0.00,,,0.00,WeatherDisplay:10.37,2013-04-02 09:25:00,
2013-04-02 05:30:00,24.8,19.5,29.96,SW,214,6.0,14.0,80,0.00,,,0.00,WeatherDisplay:10.37,2013-04-02 09:30:00,
2013-04-02 05:35:00,24.6,19.9,29.96,WNW,283,3.7,14.0,82,0.00,,,0.00,WeatherDisplay:10.37,2013-04-02 09:35:00,
2013-04-02 05:40:00,24.4,20.3,29.96,SSW,208,2.4,14.0,84,0.00,,,0.00,WeatherDisplay:10.37,2013-04-02 09:40:00,
2013-04-02 05:45:00,24.4,20.3,29.96,SW,225,2.8,14.0,84,0.00,,,0.00,WeatherDisplay:10.37,2013-04-02 09:45:00,
2013-04-02 05:50:00,24.4,20.5,29.97,SSW,208,3.9,14.0,85,0.00,,,0.00,WeatherDisplay:10.37,2013-04-02 09:50:00,
2013-04-02 05:55:00,24.3,20.4,29.97,SSW,208,7.1,14.0,85,0.00,,,0.00,WeatherDisplay:10.37,2013-04-02 09:55:00,
2013-04-02 06:00:00,24.2,20.6,29.97,West,270,6.2,14.0,86,0.00,,,0.00,WeatherDisplay:10.37,2013-04-02 10:00:00,
2013-04-02 06:05:00,23.9,20.9,29.97,West,266,5.3,14.0,88,0.00,,,0.00,WeatherDisplay:10.37,2013-04-02 10:05:00,
2013-04-02 06:10:00,23.8,21.3,29.97,West,277,3.2,14.0,90,0.00,,,0.00,WeatherDisplay:10.37,2013-04-02 10:10:00,
2013-04-02 06:15:00,23.7,21.2,29.97,SW,217,2.7,14.0,90,0.00,,,0.00,WeatherDisplay:10.37,2013-04-02 10:15:00,
2013-04-02 06:20:00,23.6,21.4,29.98,WSW,248,3.0,14.0,91,0.00,,,0.00,WeatherDisplay:10.37,2013-04-02 10:20:00,
2013-04-02 06:25:00,23.6,21.4,29.98,SW,233,2.7,14.0,91,0.00,,,0.00,WeatherDisplay:10.37,2013-04-02 10:25:00,
2013-04-02 06:30:00,23.6,21.4,29.98,WSW,257,2.1,14.0,91,0.00,,,0.00,WeatherDisplay:10.37,2013-04-02 10:30:00,
2013-04-02 06:35:00,23.5,21.3,29.98,WSW,243,3.4,14.0,91,0.00,,,0.00,WeatherDisplay:10.37,2013-04-02 10:35:00,
2013-04-02 06:40:00,23.5,21.0,29.98,SW,226,5.8,14.0,90,0.00,,,0.00,WeatherDisplay:10.37,2013-04-02 10:40:00,
2013-04-02 06:45:00,23.4,20.9,29.98,SW,226,4.1,14.0,90,0.00,,,0.00,WeatherDisplay:10.37,2013-04-02 10:45:00,
2013-04-02 06:50:00,23.3,20.5,29.98,SSW,210,2.7,14.0,89,0.00,,,0.00,WeatherDisplay:10.37,2013-04-02 10:50:00,
2013-04-02 06:55:00,23.3,20.5,29.98,WSW,248,4.9,14.0,89,0.00,,,0.00,WeatherDisplay:10.37,2013-04-02 10:55:00,
2013-04-02 07:00:00,23.4,20.1,29.98,SW,229,4.0,14.0,87,0.00,,,0.00,WeatherDisplay:10.37,2013-04-02 11:00:00,
2013-04-02 07:05:00,23.6,20.0,29.99,SW,228,5.2,14.0,86,0.00,,,0.00,WeatherDisplay:10.37,2013-04-02 11:05:00,
2013-04-02 07:10:00,23.7,19.9,29.99,SW,222,4.1,14.0,85,0.00,,,0.00,WeatherDisplay:10.37,2013-04-02 11:10:00,
2013-04-02 07:15:00,23.8,19.7,29.99,SW,232,2.9,14.0,84,0.00,,,0.00,WeatherDisplay:10.37,2013-04-02 11:15:00,
2013-04-02 07:20:00,23.9,19.8,29.99,SW,220,4.1,14.0,84,0.00,,,0.00,WeatherDisplay:10.37,2013-04-02 11:20:00,
2013-04-02 07:25:00,23.9,20.0,29.99,WSW,242,2.9,14.0,85,0.00,,,0.00,WeatherDisplay:10.37,2013-04-02 11:25:00,
2013-04-02 07:30:00,23.8,20.5,30.00,WSW,257,2.7,14.0,87,0.00,,,0.00,WeatherDisplay:10.37,2013-04-02 11:30:00,
2013-04-02 07:35:00,23.8,20.2,30.00,West,262,3.7,14.0,86,0.00,,,0.00,WeatherDisplay:10.37,2013-04-02 11:35:00,
2013-04-02 07:40:00,23.7,19.9,30.00,West,267,4.5,14.0,85,0.00,,,0.00,WeatherDisplay:10.37,2013-04-02 11:40:00,
2013-04-02 07:45:00,23.8,19.7,30.00,WSW,257,2.4,14.0,84,0.00,,,0.00,WeatherDisplay:10.37,2013-04-02 11:45:00,
2013-04-02 07:50:00,24.0,19.6,30.00,West,259,3.2,14.0,83,0.00,,,0.00,WeatherDisplay:10.37,2013-04-02 11:50:00,
2013-04-02 07:55:00,24.6,19.6,30.00,SW,226,5.6,14.0,81,0.00,,,0.00,WeatherDisplay:10.37,2013-04-02 11:55:00,
2013-04-02 08:00:00,24.6,19.9,30.00,SW,214,3.5,14.0,82,0.00,,,0.00,WeatherDisplay:10.37,2013-04-02 12:00:00,
2013-04-02 08:05:00,24.5,20.1,30.00,West,280,3.5,14.0,83,0.00,CLR,,0.00,WeatherDisplay:10.37,2013-04-02 12:05:00,
2013-04-02 08:10:00,24.4,19.7,30.01,WSW,240,6.0,14.0,82,0.00,CLR,,0.00,WeatherDisplay:10.37,2013-04-02 12:10:00,
2013-04-02 08:15:00,24.4,19.7,30.01,SW,221,5.5,14.0,82,0.00,CLR,,0.00,WeatherDisplay:10.37,2013-04-02 12:15:00,
2013-04-02 08:20:00,24.9,20.2,30.01,West,262,5.1,14.0,82,0.00,CLR,,0.00,WeatherDisplay:10.37,2013-04-02 12:20:00,
2013-04-02 08:25:00,25.5,20.5,30.01,WSW,248,4.6,14.0,81,0.00,CLR,,0.00,WeatherDisplay:10.37,2013-04-02 12:25:00,
2013-04-02 08:30:00,25.2,20.5,30.02,WNW,283,4.2,14.0,82,0.00,CLR,,0.00,WeatherDisplay:10.37,2013-04-02 12:30:00,
2013-04-02 08:35:00,25.3,20.6,30.02,South,180,3.4,14.0,82,0.00,CLR,,0.00,WeatherDisplay:10.37,2013-04-02 12:35:00,
2013-04-02 08:40:00,25.1,20.7,30.02,SW,217,5.2,14.0,83,0.00,CLR,,0.00,WeatherDisplay:10.37,2013-04-02 12:40:00,
2013-04-02 08:45:00,25.5,20.8,30.02,West,259,5.1,14.0,82,0.00,CLR,,0.00,WeatherDisplay:10.37,2013-04-02 12:45:00,
2013-04-02 08:50:00,25.8,20.5,30.02,WSW,255,5.1,14.0,80,0.00,CLR,,0.00,WeatherDisplay:10.37,2013-04-02 12:50:00,
2013-04-02 08:55:00,25.8,20.2,30.02,SW,220,5.1,14.0,79,0.00,CLR,,0.00,WeatherDisplay:10.37,2013-04-02 12:55:00,
2013-04-02 09:00:00,25.9,20.3,30.02,WSW,257,3.4,14.0,79,0.00,CLR,,0.00,WeatherDisplay:10.37,2013-04-02 13:00:00,
2013-04-02 09:05:00,25.9,19.7,30.02,SW,232,5.5,14.0,77,0.00,CLR,,0.00,WeatherDisplay:10.37,2013-04-02 13:05:00,
2013-04-02 09:10:00,25.9,20.0,30.03,West,267,2.5,14.0,78,0.00,CLR,,0.00,WeatherDisplay:10.37,2013-04-02 13:10:00,
2013-04-02 09:15:00,26.1,20.5,30.03,WSW,255,6.4,14.0,79,0.00,CLR,,0.00,WeatherDisplay:10.37,2013-04-02 13:15:00,
2013-04-02 09:20:00,26.2,20.6,30.03,West,276,6.1,14.0,79,0.00,CLR,,0.00,WeatherDisplay:10.37,2013-04-02 13:20:00,
2013-04-02 09:25:00,26.1,20.8,30.03,SW,228,7.1,14.0,80,0.00,CLR,,0.00,WeatherDisplay:10.37,2013-04-02 13:25:00,
2013-04-02 09:30:00,25.8,20.8,30.03,SW,236,7.8,14.0,81,0.00,CLR,,0.00,WeatherDisplay:10.37,2013-04-02 13:30:00,
2013-04-02 09:35:00,25.6,21.2,30.03,SW,228,6.2,14.0,83,0.00,CLR,,0.00,WeatherDisplay:10.37,2013-04-02 13:35:00,
2013-04-02 09:40:00,25.5,21.1,30.03,SW,219,6.5,14.0,83,0.00,CLR,,0.00,WeatherDisplay:10.37,2013-04-02 13:40:00,
2013-04-02 09:45:00,25.8,21.1,30.03,West,264,2.6,14.0,82,0.00,CLR,,0.00,WeatherDisplay:10.37,2013-04-02 13:45:00,
2013-04-02 09:50:00,26.7,21.1,30.03,WSW,239,3.4,14.0,79,0.00,CLR,,0.00,WeatherDisplay:10.37,2013-04-02 13:50:00,
2013-04-02 09:55:00,27.5,20.9,30.03,WSW,255,3.8,14.0,76,0.00,CLR,,0.00,WeatherDisplay:10.37,2013-04-02 13:55:00,
2013-04-02 10:00:00,27.3,20.1,30.03,West,281,5.0,14.0,74,0.00,CLR,,0.00,WeatherDisplay:10.37,2013-04-02 14:00:00,
2013-04-02 10:05:00,26.6,20.4,30.03,WSW,248,4.7,16.1,77,0.00,CLR,,0.00,WeatherDisplay:10.37,2013-04-02 14:05:00,
2013-04-02 10:10:00,26.4,21.1,30.03,SW,222,3.8,16.1,80,0.00,CLR,,0.00,WeatherDisplay:10.37,2013-04-02 14:10:00,
2013-04-02 10:15:00,26.6,20.4,30.03,West,273,5.7,16.1,77,0.00,CLR,,0.00,WeatherDisplay:10.37,2013-04-02 14:15:00,
2013-04-02 10:20:00,27.0,20.4,30.04,WSW,253,3.5,16.1,76,0.00,CLR,,0.00,WeatherDisplay:10.37,2013-04-02 14:20:00,
2013-04-02 10:25:00,27.2,20.6,30.04,WSW,239,7.8,16.1,76,0.00,CLR,,0.00,WeatherDisplay:10.37,2013-04-02 14:25:00,
2013-04-02 10:30:00,26.8,21.2,30.04,West,267,8.6,16.1,79,0.00,CLR,,0.00,WeatherDisplay:10.37,2013-04-02 14:30:00,
2013-04-02 10:35:00,26.2,21.7,30.04,WSW,250,3.9,18.4,83,0.00,CLR,,0.00,WeatherDisplay:10.37,2013-04-02 14:35:00,
2013-04-02 10:40:00,26.2,21.5,30.04,SW,226,9.4,18.4,82,0.00,CLR,,0.00,WeatherDisplay:10.37,2013-04-02 14:40:00,
2013-04-02 10:45:00,26.2,21.2,30.04,WSW,245,6.8,18.4,81,0.00,CLR,,0.00,WeatherDisplay:10.37,2013-04-02 14:45:00,
2013-04-02 10:50:00,26.8,20.9,30.04,WSW,246,6.1,18.4,78,0.00,CLR,,0.00,WeatherDisplay:10.37,2013-04-02 14:50:00,
2013-04-02 10:55:00,27.7,21.1,30.04,West,266,6.4,18.4,76,0.00,CLR,,0.00,WeatherDisplay:10.37,2013-04-02 14:55:00,
2013-04-02 11:00:00,28.2,20.7,30.04,SSW,207,5.8,18.4,73,0.00,CLR,,0.00,WeatherDisplay:10.37,2013-04-02 15:00:00,
2013-04-02 11:05:00,28.8,20.2,30.04,WNW,287,7.2,18.4,70,0.00,,,0.00,WeatherDisplay:10.37,2013-04-02 15:05:00,
2013-04-02 11:10:00,29.0,21.1,30.04,West,259,5.7,18.4,72,0.00,,,0.00,WeatherDisplay:10.37,2013-04-02 15:10:00,
2013-04-02 11:15:00,28.6,20.1,30.04,WNW,294,5.8,18.4,70,0.00,,,0.00,WeatherDisplay:10.37,2013-04-02 15:15:00,
2013-04-02 11:20:00,28.6,20.7,30.04,SW,219,3.7,18.4,72,0.00,,,0.00,WeatherDisplay:10.37,2013-04-02 15:20:00,
2013-04-02 11:25:00,28.8,21.2,30.04,SW,233,6.5,18.4,73,0.00,,,0.00,WeatherDisplay:10.37,2013-04-02 15:25:00,
2013-04-02 11:30:00,28.7,20.8,30.04,SSW,211,4.6,18.4,72,0.00,,,0.00,WeatherDisplay:10.37,2013-04-02 15:30:00,
2013-04-02 11:35:00,28.5,19.6,30.04,West,267,6.3,18.4,69,0.00,,,0.00,WeatherDisplay:10.37,2013-04-02 15:35:00,
2013-04-02 11:40:00,28.6,19.4,30.04,West,262,8.7,18.4,68,0.00,,,0.00,WeatherDisplay:10.37,2013-04-02 15:40:00,
2013-04-02 11:45:00,28.9,21.0,30.04,WNW,293,6.2,18.4,72,0.00,,,0.00,WeatherDisplay:10.37,2013-04-02 15:45:00,
2013-04-02 11:50:00,29.4,21.2,30.04,West,276,9.2,18.4,71,0.00,,,0.00,WeatherDisplay:10.37,2013-04-02 15:50:00,
2013-04-02 11:55:00,29.9,21.0,30.03,SW,215,10.6,18.4,69,0.00,,,0.00,WeatherDisplay:10.37,2013-04-02 15:55:00,
2013-04-02 12:00:00,30.2,20.9,30.03,West,280,6.9,19.6,68,0.00,,,0.00,WeatherDisplay:10.37,2013-04-02 16:00:00,
2013-04-02 12:05:00,29.9,20.3,30.03,West,260,7.0,19.6,67,0.00,,,0.00,WeatherDisplay:10.37,2013-04-02 16:05:00,
2013-04-02 12:10:00,29.5,21.6,30.03,SW,226,7.5,19.6,72,0.00,,,0.00,WeatherDisplay:10.37,2013-04-02 16:10:00,
2013-04-02 12:15:00,28.8,20.9,30.03,WSW,253,6.5,19.6,72,0.00,,,0.00,WeatherDisplay:10.37,2013-04-02 16:15:00,
2013-04-02 12:20:00,29.0,21.7,30.04,SW,228,6.0,19.6,74,0.00,,,0.00,WeatherDisplay:10.37,2013-04-02 16:20:00,
2013-04-02 12:25:00,29.4,22.5,30.03,WNW,290,3.0,19.6,75,0.00,,,0.00,WeatherDisplay:10.37,2013-04-02 16:25:00,
2013-04-02 12:30:00,29.3,21.7,30.04,SW,236,8.9,19.6,73,0.00,,,0.00,WeatherDisplay:10.37,2013-04-02 16:30:00,
2013-04-02 12:35:00,29.0,21.4,30.04,SW,236,6.9,19.6,73,0.00,,,0.00,WeatherDisplay:10.37,2013-04-02 16:35:00,
2013-04-02 12:40:00,29.4,21.2,30.03,SW,217,8.0,19.6,71,0.00,,,0.00,WeatherDisplay:10.37,2013-04-02 16:40:00,
2013-04-02 12:45:00,29.7,20.8,30.03,WNW,290,6.2,19.6,69,0.00,,,0.00,WeatherDisplay:10.37,2013-04-02 16:45:00,
2013-04-02 12:50:00,30.1,20.8,30.03,West,269,7.3,19.6,68,0.00,,,0.00,WeatherDisplay:10.37,2013-04-02 16:50:00,
2013-04-02 12:55:00,30.1,20.1,30.03,WSW,248,8.4,19.6,66,0.00,,,0.00,WeatherDisplay:10.37,2013-04-02 16:55:00,
2013-04-02 13:00:00,30.4,20.0,30.03,WNW,293,8.6,19.6,65,0.00,,,0.00,WeatherDisplay:10.37,2013-04-02 17:00:00,
2013-04-02 13:05:00,30.4,20.4,30.03,West,262,10.0,19.6,66,0.00,,,0.00,WeatherDisplay:10.37,2013-04-02 17:05:00,
2013-04-02 13:10:00,30.7,20.7,30.03,WSW,241,9.2,19.6,66,0.00,,,0.00,WeatherDisplay:10.37,2013-04-02 17:10:00,
2013-04-02 13:15:00,30.8,19.7,30.02,SSW,212,11.0,19.6,63,0.00,,,0.00,WeatherDisplay:10.37,2013-04-02 17:15:00,
2013-04-02 13:20:00,31.3,20.9,30.02,WSW,257,5.6,19.6,65,0.00,,,0.00,WeatherDisplay:10.37,2013-04-02 17:20:00,
2013-04-02 13:25:00,31.4,20.2,30.02,WSW,256,8.3,19.6,63,0.00,,,0.00,WeatherDisplay:10.37,2013-04-02 17:25:00,
2013-04-02 13:30:00,31.0,20.6,30.02,WNW,283,5.3,19.6,65,0.00,,,0.00,WeatherDisplay:10.37,2013-04-02 17:30:00,
2013-04-02 13:35:00,30.6,20.9,30.02,WNW,284,7.5,19.6,67,0.00,,,0.00,WeatherDisplay:10.37,2013-04-02 17:35:00,
2013-04-02 13:40:00,30.5,22.2,30.02,SW,236,3.9,19.6,71,0.00,,,0.00,WeatherDisplay:10.37,2013-04-02 17:40:00,
2013-04-02 13:45:00,31.1,22.8,30.02,SSW,205,4.0,19.6,71,0.00,,,0.00,WeatherDisplay:10.37,2013-04-02 17:45:00,
2013-04-02 13:50:00,31.6,21.5,30.02,WSW,243,10.6,19.6,66,0.00,,,0.00,WeatherDisplay:10.37,2013-04-02 17:50:00,
2013-04-02 13:55:00,31.0,20.6,30.02,WNW,300,5.1,19.6,65,0.00,,,0.00,WeatherDisplay:10.37,2013-04-02 17:55:00,
2013-04-02 14:00:00,31.3,20.9,30.02,SW,236,6.7,19.6,65,0.00,,,0.00,WeatherDisplay:10.37,2013-04-02 18:00:00,
2013-04-02 14:05:00,31.7,22.3,30.01,West,268,5.9,19.6,68,0.00,,,0.00,WeatherDisplay:10.37,2013-04-02 18:05:00,
2013-04-02 14:10:00,31.6,20.4,30.02,WSW,250,10.0,19.6,63,0.00,,,0.00,WeatherDisplay:10.37,2013-04-02 18:10:00,
2013-04-02 14:15:00,31.3,20.5,30.02,WSW,239,7.8,19.6,64,0.00,,,0.00,WeatherDisplay:10.37,2013-04-02 18:15:00,
2013-04-02 14:20:00,31.7,21.6,30.02,West,267,6.6,19.6,66,0.00,,,0.00,WeatherDisplay:10.37,2013-04-02 18:20:00,
2013-04-02 14:25:00,32.0,20.8,30.01,SSW,203,4.2,19.6,63,0.00,,,0.00,WeatherDisplay:10.37,2013-04-02 18:25:00,
2013-04-02 14:30:00,32.2,20.6,30.02,WSW,253,10.0,19.6,62,0.00,,,0.00,WeatherDisplay:10.37,2013-04-02 18:30:00,
2013-04-02 14:35:00,32.6,23.9,30.02,SW,226,6.8,19.6,70,0.00,,,0.00,WeatherDisplay:10.37,2013-04-02 18:35:00,
2013-04-02 14:40:00,32.7,22.6,30.02,WSW,248,6.4,19.6,66,0.00,,,0.00,WeatherDisplay:10.37,2013-04-02 18:40:00,
2013-04-02 14:45:00,32.1,21.3,30.02,WSW,242,7.4,19.6,64,0.00,,,0.00,WeatherDisplay:10.37,2013-04-02 18:45:00,
2013-04-02 14:50:00,31.7,22.3,30.02,NW,321,4.3,19.6,68,0.00,,,0.00,WeatherDisplay:10.37,2013-04-02 18:50:00,
2013-04-02 14:55:00,30.9,23.3,30.03,NW,314,6.3,19.6,73,0.00,,,0.00,WeatherDisplay:10.37,2013-04-02 18:55:00,
2013-04-02 15:00:00,29.9,25.1,30.03,WNW,290,7.1,19.6,82,0.00,,,0.00,WeatherDisplay:10.37,2013-04-02 19:00:00,
2013-04-02 15:05:00,29.8,25.6,30.02,WSW,239,6.3,19.6,84,0.00,,,0.00,WeatherDisplay:10.37,2013-04-02 19:05:00,
2013-04-02 15:10:00,30.9,25.5,30.02,WSW,253,5.3,19.6,80,0.00,,,0.00,WeatherDisplay:10.37,2013-04-02 19:10:00,
2013-04-02 15:15:00,31.3,24.0,30.01,West,278,8.1,19.6,74,0.00,,,0.00,WeatherDisplay:10.37,2013-04-02 19:15:00,
2013-04-02 15:20:00,31.4,23.7,30.02,West,278,3.8,19.6,73,0.00,,,0.00,WeatherDisplay:10.37,2013-04-02 19:20:00,
2013-04-02 15:25:00,31.2,23.9,30.02,WNW,283,7.0,19.6,74,0.00,,,0.00,WeatherDisplay:10.37,2013-04-02 19:25:00,
2013-04-02 15:30:00,30.4,24.7,30.01,West,281,7.7,20.0,79,0.00,,,0.00,WeatherDisplay:10.37,2013-04-02 19:30:00,
2013-04-02 15:35:00,30.2,24.2,30.02,WNW,294,5.5,20.0,78,0.00,,,0.00,WeatherDisplay:10.37,2013-04-02 19:35:00,
2013-04-02 15:40:00,30.5,26.0,30.02,NNE,15,4.7,20.0,83,0.00,,,0.00,WeatherDisplay:10.37,2013-04-02 19:40:00,
2013-04-02 15:45:00,30.5,24.8,30.01,WSW,248,5.2,20.0,79,0.00,,,0.00,WeatherDisplay:10.37,2013-04-02 19:45:00,
2013-04-02 15:50:00,30.8,24.7,30.01,SW,227,4.3,20.0,78,0.00,,,0.00,WeatherDisplay:10.37,2013-04-02 19:50:00,
2013-04-02 15:56:00,30.9,24.2,30.02,SW,222,7.8,20.0,76,0.00,,,0.00,WeatherDisplay:10.37,2013-04-02 19:56:00,
2013-04-02 16:01:00,30.6,25.2,30.02,WSW,242,8.5,20.0,80,0.00,,,0.00,WeatherDisplay:10.37,2013-04-02 20:01:00,
2013-04-02 16:06:00,30.6,26.1,30.02,SW,217,6.5,20.0,83,0.00,,,0.00,WeatherDisplay:10.37,2013-04-02 20:06:00,
2013-04-02 16:11:00,30.8,26.2,30.02,SSW,203,7.2,20.0,83,0.00,,,0.00,WeatherDisplay:10.37,2013-04-02 20:11:00,
2013-04-02 16:16:00,30.3,26.0,30.02,WSW,242,7.5,20.0,84,0.00,,,0.00,WeatherDisplay:10.37,2013-04-02 20:16:00,
2013-04-02 16:21:00,30.4,27.0,30.02,SW,230,7.6,20.0,87,0.00,,,0.00,WeatherDisplay:10.37,2013-04-02 20:21:00,
2013-04-02 16:26:00,30.4,27.0,30.02,WSW,245,6.4,20.0,87,0.00,,,0.00,WeatherDisplay:10.37,2013-04-02 20:26:00,
2013-04-02 16:31:00,30.1,26.4,30.02,SW,233,6.3,20.0,86,0.00,,,0.00,WeatherDisplay:10.37,2013-04-02 20:31:00,
2013-04-02 16:36:00,29.8,26.4,30.02,WSW,255,7.0,20.0,87,0.00,,,0.00,WeatherDisplay:10.37,2013-04-02 20:36:00,
2013-04-02 16:41:00,29.7,26.9,30.02,SW,231,5.8,20.0,89,0.00,,,0.00,WeatherDisplay:10.37,2013-04-02 20:41:00,
2013-04-02 16:46:00,29.7,26.6,30.01,SSW,208,6.5,20.0,88,0.00,,,0.00,WeatherDisplay:10.37,2013-04-02 20:46:00,
2013-04-02 16:51:00,30.3,26.3,30.01,SW,217,7.7,20.0,85,0.00,,,0.00,WeatherDisplay:10.37,2013-04-02 20:51:00,
2013-04-02 16:56:00,30.5,26.0,30.02,SW,219,7.4,20.0,83,0.00,,,0.00,WeatherDisplay:10.37,2013-04-02 20:56:00,
2013-04-02 17:01:00,31.0,25.2,30.02,WSW,245,8.1,20.0,79,0.00,,,0.00,WeatherDisplay:10.37,2013-04-02 21:01:00,
2013-04-02 17:06:00,32.0,25.9,30.01,West,266,4.7,20.0,78,0.00,,,0.00,WeatherDisplay:10.37,2013-04-02 21:06:00,
2013-04-02 17:11:00,32.4,25.7,30.02,West,263,7.9,20.0,76,0.00,,,0.00,WeatherDisplay:10.37,2013-04-02 21:11:00,
2013-04-02 17:16:00,32.1,25.1,30.02,SW,229,5.9,20.0,75,0.00,,,0.00,WeatherDisplay:10.37,2013-04-02 21:16:00,
2013-04-02 17:21:00,31.9,25.8,30.02,SW,235,5.0,20.0,78,0.00,,,0.00,WeatherDisplay:10.37,2013-04-02 21:21:00,
2013-04-02 17:26:00,31.9,25.8,30.02,SSW,210,6.0,20.0,78,0.00,,,0.00,WeatherDisplay:10.37,2013-04-02 21:26:00,
2013-04-02 17:31:00,32.6,25.9,30.02,WSW,253,6.5,20.0,76,0.00,,,0.00,WeatherDisplay:10.37,2013-04-02 21:31:00,
2013-04-02 17:36:00,33.1,26.4,30.02,WSW,239,4.7,20.0,76,0.00,,,0.00,WeatherDisplay:10.37,2013-04-02 21:36:00,
2013-04-02 17:41:00,32.4,25.7,30.02,SSW,212,6.6,20.0,76,0.00,,,0.00,WeatherDisplay:10.37,2013-04-02 21:41:00,
2013-04-02 17:46:00,32.8,26.7,30.03,SW,229,6.3,20.0,78,0.00,,,0.00,WeatherDisplay:10.37,2013-04-02 21:46:00,
2013-04-02 17:51:00,33.1,26.0,30.03,SW,228,7.1,20.0,75,0.00,,,0.00,WeatherDisplay:10.37,2013-04-02 21:51:00,
2013-04-02 17:56:00,32.5,25.5,30.03,SW,226,5.8,20.0,75,0.00,,,0.00,WeatherDisplay:10.37,2013-04-02 21:56:00,
2013-04-02 18:01:00,32.5,24.8,30.03,SW,219,7.3,20.0,73,0.00,,,0.00,WeatherDisplay:10.37,2013-04-02 22:01:00,
2013-04-02 18:06:00,32.9,24.5,30.03,East,86,5.0,20.0,71,0.00,,,0.00,WeatherDisplay:10.37,2013-04-02 22:06:00,
2013-04-02 18:11:00,33.0,20.6,30.03,NW,305,8.5,20.0,60,0.00,,,0.00,WeatherDisplay:10.37,2013-04-02 22:11:00,
2013-04-02 18:16:00,33.2,20.0,30.03,WNW,295,7.3,20.0,58,0.00,,,0.00,WeatherDisplay:10.37,2013-04-02 22:16:00,
2013-04-02 18:21:00,33.5,18.6,30.04,WSW,252,4.6,20.0,54,0.00,,,0.00,WeatherDisplay:10.37,2013-04-02 22:21:00,
2013-04-02 18:26:00,33.2,20.4,30.04,WSW,242,3.6,20.0,59,0.00,,,0.00,WeatherDisplay:10.37,2013-04-02 22:26:00,
2013-04-02 18:31:00,33.8,17.1,30.04,West,264,12.0,20.0,50,0.00,,,0.00,WeatherDisplay:10.37,2013-04-02 22:31:00,
2013-04-02 18:36:00,33.9,17.2,30.04,West,276,8.3,20.0,50,0.00,,,0.00,WeatherDisplay:10.37,2013-04-02 22:36:00,
2013-04-02 18:41:00,33.6,16.9,30.05,WNW,293,6.8,20.0,50,0.00,,,0.00,WeatherDisplay:10.37,2013-04-02 22:41:00,
2013-04-02 18:46:00,33.4,17.2,30.05,NW,316,3.5,20.0,51,0.00,,,0.00,WeatherDisplay:10.37,2013-04-02 22:46:00,
2013-04-02 18:51:00,33.5,18.6,30.05,WSW,248,5.1,20.0,54,0.00,,,0.00,WeatherDisplay:10.37,2013-04-02 22:51:00,
2013-04-02 18:56:00,33.3,19.3,30.06,NW,325,6.3,20.0,56,0.00,,,0.00,WeatherDisplay:10.37,2013-04-02 22:56:00,
2013-04-02 19:01:00,32.9,18.9,30.06,SW,229,9.3,20.0,56,0.00,,,0.00,WeatherDisplay:10.37,2013-04-02 23:01:00,
2013-04-02 19:06:00,32.4,18.0,30.06,WSW,242,11.7,20.0,55,0.00,,,0.00,WeatherDisplay:10.37,2013-04-02 23:06:00,
2013-04-02 19:11:00,32.2,19.1,30.06,West,274,6.7,20.0,58,0.00,,,0.00,WeatherDisplay:10.37,2013-04-02 23:11:00,
2013-04-02 19:16:00,32.0,18.5,30.06,West,281,9.7,20.0,57,0.00,,,0.00,WeatherDisplay:10.37,2013-04-02 23:16:00,
2013-04-02 19:21:00,32.0,18.1,30.06,WSW,257,11.7,20.0,56,0.00,,,0.00,WeatherDisplay:10.37,2013-04-02 23:21:00,
2013-04-02 19:26:00,32.0,19.3,30.06,WNW,285,6.1,20.0,59,0.00,,,0.00,WeatherDisplay:10.37,2013-04-02 23:26:00,
2013-04-02 19:31:00,31.9,18.8,30.07,WSW,250,5.6,20.0,58,0.00,,,0.00,WeatherDisplay:10.37,2013-04-02 23:31:00,
2013-04-02 19:36:00,31.9,18.0,30.07,West,274,10.2,22.0,56,0.00,,,0.00,WeatherDisplay:10.37,2013-04-02 23:36:00,
2013-04-02 19:41:00,31.8,18.7,30.07,WSW,255,7.8,22.0,58,0.00,,,0.00,WeatherDisplay:10.37,2013-04-02 23:41:00,
2013-04-02 19:46:00,31.7,19.4,30.07,West,273,9.2,22.0,60,0.00,,,0.00,WeatherDisplay:10.37,2013-04-02 23:46:00,
2013-04-02 19:51:00,31.7,19.4,30.08,South,170,5.1,22.0,60,0.00,,,0.00,WeatherDisplay:10.37,2013-04-02 23:51:00,
2013-04-02 19:56:00,31.6,19.3,30.07,SSW,204,5.1,22.0,60,0.00,,,0.00,WeatherDisplay:10.37,2013-04-02 23:56:00,
2013-04-02 20:01:00,31.5,18.8,30.07,West,266,7.4,22.0,59,0.00,CLR,,0.00,WeatherDisplay:10.37,2013-04-03 00:01:00,
2013-04-02 20:06:00,31.4,18.3,30.07,WNW,302,7.0,22.0,58,0.00,CLR,,0.00,WeatherDisplay:10.37,2013-04-03 00:06:00,
2013-04-02 20:11:00,31.4,17.9,30.08,West,264,8.3,22.0,57,0.00,CLR,,0.00,WeatherDisplay:10.37,2013-04-03 00:11:00,
2013-04-02 20:16:00,31.3,17.4,30.08,SW,228,6.0,22.0,56,0.00,CLR,,0.00,WeatherDisplay:10.37,2013-04-03 00:16:00,
2013-04-02 20:21:00,31.3,17.8,30.08,West,267,3.5,22.0,57,0.00,CLR,,0.00,WeatherDisplay:10.37,2013-04-03 00:21:00,
2013-04-02 20:26:00,31.3,17.4,30.08,WNW,290,4.7,22.0,56,0.00,CLR,,0.00,WeatherDisplay:10.37,2013-04-03 00:26:00,
2013-04-02 20:31:00,31.2,16.9,30.09,WSW,255,5.1,22.0,55,0.00,CLR,,0.00,WeatherDisplay:10.37,2013-04-03 00:31:00,
2013-04-02 20:36:00,31.1,17.2,30.09,SW,224,4.4,22.0,56,0.00,CLR,,0.00,WeatherDisplay:10.37,2013-04-03 00:36:00,
2013-04-02 20:41:00,31.1,16.4,30.09,West,273,6.0,22.0,54,0.00,CLR,,0.00,WeatherDisplay:10.37,2013-04-03 00:41:00,
2013-04-02 20:46:00,31.1,16.4,30.09,SSW,194,6.2,22.0,54,0.00,CLR,,0.00,WeatherDisplay:10.37,2013-04-03 00:46:00,
2013-04-02 20:51:00,31.0,16.3,30.09,West,271,5.7,22.0,54,0.00,CLR,,0.00,WeatherDisplay:10.37,2013-04-03 00:51:00,
2013-04-02 20:56:00,31.1,16.4,30.09,West,260,7.7,22.0,54,0.00,CLR,,0.00,WeatherDisplay:10.37,2013-04-03 00:56:00,
2013-04-02 21:01:00,31.1,16.8,30.10,WSW,248,2.7,22.0,55,0.00,CLR,,0.00,WeatherDisplay:10.37,2013-04-03 01:01:00,
2013-04-02 21:06:00,31.1,16.4,30.10,West,262,6.1,22.0,54,0.00,CLR,,0.00,WeatherDisplay:10.37,2013-04-03 01:06:00,
2013-04-02 21:11:00,31.1,16.4,30.10,West,280,5.6,22.0,54,0.00,CLR,,0.00,WeatherDisplay:10.37,2013-04-03 01:11:00,
2013-04-02 21:16:00,31.2,16.9,30.10,West,271,5.1,22.0,55,0.00,CLR,,0.00,WeatherDisplay:10.37,2013-04-03 01:16:00,
2013-04-02 21:21:00,31.2,16.9,30.10,WNW,290,4.6,22.0,55,0.00,CLR,,0.00,WeatherDisplay:10.37,2013-04-03 01:21:00,
2013-04-02 21:27:00,31.2,16.9,30.10,WNW,287,5.9,22.0,55,0.00,CLR,,0.00,WeatherDisplay:10.37,2013-04-03 01:27:00,
2013-04-02 21:32:00,31.2,17.3,30.10,West,273,5.4,22.0,56,0.00,CLR,,0.00,WeatherDisplay:10.37,2013-04-03 01:32:00,
2013-04-02 21:37:00,31.2,17.7,30.11,WSW,257,5.3,22.0,57,0.00,CLR,,0.00,WeatherDisplay:10.37,2013-04-03 01:37:00,
2013-04-02 21:42:00,31.2,17.7,30.11,West,259,3.5,22.0,57,0.00,CLR,,0.00,WeatherDisplay:10.37,2013-04-03 01:42:00,
2013-04-02 21:47:00,31.2,17.7,30.11,SW,217,3.6,22.0,57,0.00,CLR,,0.00,WeatherDisplay:10.37,2013-04-03 01:47:00,
2013-04-02 21:52:00,31.2,17.7,30.11,WSW,257,5.6,22.0,57,0.00,CLR,,0.00,WeatherDisplay:10.37,2013-04-03 01:52:00,
2013-04-02 21:57:00,31.2,18.9,30.11,West,279,6.5,22.0,60,0.00,CLR,,0.00,WeatherDisplay:10.37,2013-04-03 01:57:00,
2013-04-02 22:02:00,30.9,19.4,30.11,NW,304,2.9,22.0,62,0.00,CLR,,0.00,WeatherDisplay:10.37,2013-04-03 02:02:00,
2013-04-02 22:07:00,30.9,18.6,30.11,West,280,4.3,22.0,60,0.00,CLR,,0.00,WeatherDisplay:10.37,2013-04-03 02:07:00,
2013-04-02 22:12:00,31.0,18.7,30.11,WSW,248,3.0,22.0,60,0.00,CLR,,0.00,WeatherDisplay:10.37,2013-04-03 02:12:00,
2013-04-02 22:17:00,31.2,18.5,30.11,WNW,295,2.1,22.0,59,0.00,CLR,,0.00,WeatherDisplay:10.37,2013-04-03 02:17:00,
2013-04-02 22:22:00,31.2,18.5,30.11,West,281,2.3,22.0,59,0.00,CLR,,0.00,WeatherDisplay:10.37,2013-04-03 02:22:00,
2013-04-02 22:27:00,31.2,18.5,30.11,West,277,4.6,22.0,59,0.00,CLR,,0.00,WeatherDisplay:10.37,2013-04-03 02:27:00,
2013-04-02 22:32:00,31.1,18.8,30.10,WSW,253,2.9,22.0,60,0.00,CLR,,0.00,WeatherDisplay:10.37,2013-04-03 02:32:00,
2013-04-02 22:37:00,31.1,18.8,30.10,WSW,241,4.1,22.0,60,0.00,CLR,,0.00,WeatherDisplay:10.37,2013-04-03 02:37:00,
2013-04-02 22:42:00,31.0,18.7,30.10,SW,226,5.2,22.0,60,0.00,CLR,,0.00,WeatherDisplay:10.37,2013-04-03 02:42:00,
2013-04-02 22:47:00,31.0,19.5,30.10,SW,224,4.9,22.0,62,0.00,CLR,,0.00,WeatherDisplay:10.37,2013-04-03 02:47:00,
2013-04-02 22:52:00,30.8,20.0,30.10,WNW,283,3.9,22.0,64,0.00,CLR,,0.00,WeatherDisplay:10.37,2013-04-03 02:52:00,
2013-04-02 22:57:00,30.6,19.9,30.10,WSW,248,5.0,22.0,64,0.00,CLR,,0.00,WeatherDisplay:10.37,2013-04-03 02:57:00,
2013-04-02 23:02:00,30.6,19.9,30.10,WSW,239,5.2,22.0,64,0.00,,,0.00,WeatherDisplay:10.37,2013-04-03 03:02:00,
2013-04-02 23:07:00,30.7,19.6,30.11,WSW,248,7.6,22.0,63,0.00,,,0.00,WeatherDisplay:10.37,2013-04-03 03:07:00,
2013-04-02 23:12:00,30.8,19.7,30.11,West,276,4.4,22.0,63,0.00,,,0.00,WeatherDisplay:10.37,2013-04-03 03:12:00,
2013-04-02 23:17:00,30.8,19.3,30.11,WSW,245,6.5,22.0,62,0.00,,,0.00,WeatherDisplay:10.37,2013-04-03 03:17:00,
2013-04-02 23:22:00,30.7,18.8,30.10,WSW,253,3.9,22.0,61,0.00,,,0.00,WeatherDisplay:10.37,2013-04-03 03:22:00,
2013-04-02 23:27:00,30.7,19.2,30.11,WSW,245,1.4,22.0,62,0.00,,,0.00,WeatherDisplay:10.37,2013-04-03 03:27:00,
2013-04-02 23:32:00,30.7,19.6,30.11,WSW,240,3.1,22.0,63,0.00,,,0.00,WeatherDisplay:10.37,2013-04-03 03:32:00,
2013-04-02 23:37:00,30.6,19.5,30.11,WNW,283,4.6,22.0,63,0.00,,,0.00,WeatherDisplay:10.37,2013-04-03 03:37:00,
2013-04-02 23:42:00,30.5,19.4,30.11,NE,40,3.2,22.0,63,0.00,,,0.00,WeatherDisplay:10.37,2013-04-03 03:42:00,
2013-04-02 23:47:00,30.4,19.3,30.11,West,269,4.2,22.0,63,0.00,,,0.00,WeatherDisplay:10.37,2013-04-03 03:47:00,
2013-04-02 23:52:00,30.4,17.8,30.11,WNW,290,6.5,11.0,59,0.00,,,0.00,WeatherDisplay:10.37,2013-04-03 03:52:00,
2013-04-02 23:57:00,30.4,17.8,30.11,NW,305,6.5,11.5,59,0.00,,,0.00,WeatherDisplay:10.37,2013-04-03 03:57:00,